createdAt,value
2022-08-07T00:00:56.427Z,25.36
2022-08-07T00:05:04.008Z,25.28
2022-08-07T00:09:17.054Z,25.21
2022-08-07T00:13:25.834Z,24.98
2022-08-07T00:17:29.110Z,24.96
2022-08-07T00:21:56.106Z,24.96
2022-08-07T00:31:37.965Z,24.81
2022-08-07T00:35:49.045Z,24.70
2022-08-07T00:39:54.981Z,24.39
2022-08-07T00:44:01.015Z,24.42
2022-08-07T00:48:09.379Z,24.37
2022-08-07T00:52:13.581Z,24.37
2022-08-07T00:56:30.386Z,24.38
2022-08-07T01:00:36.111Z,24.36
2022-08-07T01:04:43.280Z,24.20
2022-08-07T01:08:53.588Z,24.02
2022-08-07T01:12:59.021Z,23.99
2022-08-07T01:17:04.231Z,23.82
2022-08-07T01:21:17.555Z,23.77
2022-08-07T01:25:54.559Z,23.74
2022-08-07T01:29:50.769Z,23.85
2022-08-07T01:34:02.089Z,23.83
2022-08-07T01:38:09.700Z,23.80
2022-08-07T01:42:40.121Z,23.74
2022-08-07T01:46:42.426Z,23.83
2022-08-07T01:50:50.115Z,23.86
2022-08-07T01:54:56.358Z,23.85
2022-08-07T01:59:09.433Z,23.74
2022-08-07T02:03:32.135Z,23.62
2022-08-07T02:07:53.111Z,23.41
2022-08-07T02:12:29.011Z,23.34
2022-08-07T02:16:37.127Z,23.36
2022-08-07T02:20:43.208Z,23.33
2022-08-07T02:24:53.334Z,23.35
2022-08-07T02:28:57.383Z,23.38
2022-08-07T02:33:09.574Z,23.46
2022-08-07T02:37:14.928Z,23.54
2022-08-07T02:41:21.787Z,23.49
2022-08-07T02:45:59.024Z,23.38
2022-08-07T02:49:57.498Z,23.38
2022-08-07T02:54:08.275Z,23.50
2022-08-07T02:58:17.276Z,23.57
2022-08-07T03:02:25.366Z,23.32
2022-08-07T03:06:33.139Z,23.34
2022-08-07T03:10:40.752Z,23.31
2022-08-07T03:14:52.106Z,23.22
2022-08-07T03:18:55.937Z,23.27
2022-08-07T03:22:59.623Z,23.26
2022-08-07T03:27:04.927Z,23.25
2022-08-07T03:31:19.659Z,23.26
2022-08-07T03:35:43.422Z,23.05
2022-08-07T03:39:59.421Z,23.12
2022-08-07T03:44:03.748Z,23.20
2022-08-07T03:48:10.126Z,23.19
2022-08-07T03:52:22.702Z,23.27
2022-08-07T03:56:34.284Z,23.36
2022-08-07T04:00:46.300Z,23.45
2022-08-07T04:04:54.933Z,23.54
2022-08-07T04:09:01.718Z,23.54
2022-08-07T04:13:07.700Z,23.51
2022-08-07T04:17:21.861Z,23.53
2022-08-07T04:21:31.176Z,23.56
2022-08-07T04:25:39.430Z,23.67
2022-08-07T04:29:58.473Z,23.82
2022-08-07T04:34:17.041Z,23.89
2022-08-07T04:38:26.751Z,23.91
2022-08-07T04:42:32.007Z,23.91
2022-08-07T04:46:40.035Z,23.92
2022-08-07T04:51:09.321Z,24.04
2022-08-07T04:58:10.761Z,24.21
2022-08-07T05:00:11.803Z,24.40
2022-08-07T05:04:54.709Z,24.61
2022-08-07T05:09:15.223Z,24.69
2022-08-07T05:14:54.050Z,24.71
2022-08-07T05:22:27.655Z,25.00
2022-08-07T05:26:34.317Z,25.17
2022-08-07T05:30:44.536Z,25.28
2022-08-07T05:34:52.097Z,25.42
2022-08-07T05:39:00.142Z,25.56
2022-08-07T05:43:11.621Z,25.66
2022-08-07T05:47:20.783Z,25.83
2022-08-07T05:51:25.326Z,25.98
2022-08-07T05:56:02.040Z,26.08
2022-08-07T06:00:01.569Z,26.20
2022-08-07T06:04:21.050Z,26.33
2022-08-07T06:08:31.578Z,26.42
2022-08-07T06:12:34.842Z,26.51
2022-08-07T06:16:39.053Z,26.64
2022-08-07T06:20:51.061Z,26.78
2022-08-07T06:25:10.250Z,26.91
2022-08-07T06:29:13.299Z,27.06
2022-08-07T06:33:16.688Z,27.25
2022-08-07T06:37:21.632Z,27.32
2022-08-07T06:42:01.998Z,27.51
2022-08-07T06:45:52.689Z,27.66
2022-08-07T06:49:58.449Z,27.79
2022-08-07T06:55:31.842Z,27.87
2022-08-07T06:58:30.125Z,27.83
2022-08-07T07:02:48.372Z,27.94
2022-08-07T07:07:01.348Z,27.92
2022-08-07T07:11:14.135Z,27.97
2022-08-07T07:15:32.554Z,28.18
2022-08-07T07:19:57.281Z,28.25
2022-08-07T07:24:06.106Z,28.34
2022-08-07T07:28:42.447Z,28.39
2022-08-07T07:32:45.209Z,28.50
2022-08-07T07:36:54.019Z,28.56
2022-08-07T07:41:02.665Z,28.55
2022-08-07T07:45:06.773Z,28.61
2022-08-07T07:50:36.409Z,28.89
2022-08-07T07:53:40.652Z,29.03
2022-08-07T07:57:58.464Z,28.98
2022-08-07T08:02:10.715Z,29.15
2022-08-07T08:06:14.265Z,29.19
2022-08-07T08:10:35.487Z,29.34
2022-08-07T08:14:45.217Z,29.42
2022-08-07T08:18:51.634Z,29.59
2022-08-07T08:23:15.267Z,29.68
2022-08-07T08:27:19.275Z,29.75
2022-08-07T08:31:58.470Z,29.68
2022-08-07T08:35:50.727Z,29.57
2022-08-07T08:39:58.648Z,29.54
2022-08-07T08:44:16.677Z,29.66
2022-08-07T08:49:02.070Z,29.36
2022-08-07T08:53:33.342Z,29.59
2022-08-07T08:57:42.400Z,29.96
2022-08-07T09:02:00.624Z,29.81
2022-08-07T09:06:11.647Z,29.72
2022-08-07T09:10:21.415Z,29.83
2022-08-07T09:14:37.841Z,29.94
2022-08-07T09:18:58.459Z,29.94
2022-08-07T09:24:33.733Z,29.99
2022-08-07T09:27:59.797Z,30.30
2022-08-07T09:32:20.950Z,30.15
2022-08-07T09:36:43.146Z,30.16
2022-08-07T09:41:07.989Z,30.19
2022-08-07T09:47:26.045Z,30.23
2022-08-07T09:50:44.378Z,30.49
2022-08-07T09:54:56.974Z,30.82
2022-08-07T09:59:35.670Z,31.01
2022-08-07T10:04:24.916Z,31.11
2022-08-07T10:08:59.219Z,31.16
2022-08-07T10:13:01.118Z,31.32
2022-08-07T10:18:01.349Z,31.17
2022-08-07T10:22:38.584Z,31.45
2022-08-07T10:27:18.088Z,31.63
2022-08-07T10:31:49.048Z,31.56
2022-08-07T10:36:17.997Z,31.66
2022-08-07T10:40:47.484Z,31.72
2022-08-07T10:45:11.900Z,31.92
2022-08-07T10:49:45.225Z,32.09
2022-08-07T10:54:13.242Z,32.06
2022-08-07T10:58:16.577Z,32.26
2022-08-07T11:02:34.097Z,32.19
2022-08-07T11:12:01.520Z,31.93
2022-08-07T11:16:15.488Z,32.06
2022-08-07T11:20:44.225Z,32.29
2022-08-07T11:25:06.656Z,32.11
2022-08-07T11:29:49.117Z,32.20
2022-08-07T11:34:12.958Z,32.12
2022-08-07T11:38:37.268Z,32.14
2022-08-07T11:42:51.052Z,32.50
2022-08-07T11:47:08.413Z,32.57
2022-08-07T11:52:19.798Z,32.51
2022-08-07T11:56:56.306Z,32.48
2022-08-07T12:01:05.253Z,32.68
2022-08-07T12:05:41.138Z,32.80
2022-08-07T12:10:02.234Z,33.05
2022-08-07T12:14:18.958Z,33.03
2022-08-07T12:18:36.480Z,33.44
2022-08-07T12:22:59.392Z,33.52
2022-08-07T12:27:27.993Z,33.28
2022-08-07T12:32:23.803Z,33.73
2022-08-07T12:36:32.719Z,33.88
2022-08-07T12:40:47.618Z,34.05
2022-08-07T12:44:51.816Z,34.15
2022-08-07T12:49:25.315Z,34.01
2022-08-07T12:54:36.586Z,33.73
2022-08-07T12:58:15.807Z,33.65
2022-08-07T13:02:50.643Z,33.20
2022-08-07T13:08:13.586Z,32.93
2022-08-07T13:12:02.253Z,32.63
2022-08-07T13:16:43.914Z,32.32
2022-08-07T13:20:59.559Z,32.01
2022-08-07T13:25:30.856Z,31.86
2022-08-07T13:29:42.382Z,31.91
2022-08-07T13:34:33.034Z,31.74
2022-08-07T13:38:24.764Z,31.48
2022-08-07T13:42:27.968Z,31.31
2022-08-07T13:46:37.623Z,31.07
2022-08-07T13:50:44.801Z,30.82
2022-08-07T13:55:19.467Z,30.55
2022-08-07T13:59:31.983Z,30.50
2022-08-07T14:04:07.194Z,30.52
2022-08-07T14:08:03.282Z,30.41
2022-08-07T14:12:10.424Z,30.20
2022-08-07T14:16:17.791Z,30.13
2022-08-07T14:54:09.735Z,28.88
2022-08-07T14:58:27.461Z,28.78
2022-08-07T15:06:53.420Z,28.61
2022-08-07T15:11:06.520Z,28.57
2022-08-07T15:15:17.393Z,28.52
2022-08-07T15:20:23.512Z,28.48
2022-08-07T15:25:15.196Z,28.42
2022-08-07T15:28:34.371Z,28.40
2022-08-07T15:32:50.810Z,28.40
2022-08-07T15:37:08.314Z,28.39
2022-08-07T15:45:57.367Z,28.32
2022-08-07T15:50:06.829Z,28.06
2022-08-07T15:54:11.912Z,27.59
2022-08-07T15:58:20.760Z,27.19
2022-08-07T16:02:27.646Z,26.80
2022-08-07T16:06:43.409Z,26.46
2022-08-07T16:10:49.851Z,26.40
2022-08-07T16:15:05.807Z,26.45
2022-08-07T16:19:42.769Z,26.10
2022-08-07T16:24:34.434Z,26.01
2022-08-07T16:30:08.533Z,26.28
2022-08-07T16:34:02.324Z,26.26
2022-08-07T16:38:05.477Z,26.26
2022-08-07T16:42:34.887Z,26.20
2022-08-07T16:47:05.748Z,26.32
2022-08-07T16:52:01.371Z,26.42
2022-08-07T16:55:53.812Z,26.51
2022-08-07T17:00:15.200Z,26.65
2022-08-07T17:04:50.819Z,28.25
2022-08-07T17:10:05.277Z,30.05
2022-08-07T17:14:19.017Z,31.58
2022-08-07T17:18:46.123Z,31.37
2022-08-07T17:23:01.215Z,31.27
2022-08-07T17:27:32.561Z,31.16
2022-08-07T17:31:44.347Z,30.84
2022-08-07T17:36:12.052Z,31.88
2022-08-07T17:40:31.200Z,32.43
2022-08-07T17:44:50.744Z,32.96
2022-08-07T17:49:09.417Z,33.48
2022-08-07T17:53:59.917Z,32.88
2022-08-07T17:57:56.448Z,31.83
2022-08-07T18:02:12.754Z,31.08
2022-08-07T18:06:38.214Z,31.02
2022-08-07T18:12:08.194Z,30.27
2022-08-07T18:15:53.584Z,29.44
2022-08-07T18:21:11.944Z,28.78
2022-08-07T18:24:43.208Z,28.21
2022-08-07T18:28:57.773Z,27.76
2022-08-07T18:33:36.944Z,27.31
2022-08-07T18:38:55.038Z,27.02
2022-08-07T18:42:55.602Z,26.63
2022-08-07T18:47:22.575Z,26.36
2022-08-07T18:52:35.318Z,26.31
2022-08-07T18:56:20.242Z,26.12
2022-08-07T19:00:59.401Z,25.97
2022-08-07T19:05:20.568Z,25.84
2022-08-07T19:09:55.552Z,25.72
2022-08-07T19:14:16.808Z,25.74
2022-08-07T19:18:34.657Z,25.74
2022-08-07T19:22:50.154Z,25.67
2022-08-07T19:31:59.924Z,25.59
2022-08-07T19:35:56.606Z,25.61
2022-08-07T19:40:02.585Z,25.70
2022-08-07T19:44:19.047Z,25.69
2022-08-07T19:48:53.582Z,25.69
2022-08-07T19:52:58.644Z,25.73
2022-08-07T19:58:02.107Z,25.67
2022-08-07T20:01:52.943Z,25.62
2022-08-07T20:05:59.781Z,25.58
2022-08-07T20:10:35.218Z,25.54
2022-08-07T20:14:32.761Z,25.49
2022-08-07T20:18:37.796Z,25.44
2022-08-07T20:22:46.278Z,25.36
2022-08-07T20:26:52.152Z,25.31
2022-08-07T20:30:59.275Z,25.08
2022-08-07T20:35:08.044Z,24.61
2022-08-07T20:40:03.378Z,24.49
2022-08-07T20:43:52.767Z,24.33
2022-08-07T20:48:02.611Z,24.25
2022-08-07T20:52:14.281Z,24.28
2022-08-07T20:56:26.322Z,24.22
2022-08-07T21:00:47.350Z,23.98
2022-08-07T21:04:51.293Z,23.99
2022-08-07T21:09:03.594Z,23.98
2022-08-07T21:13:24.644Z,23.88
2022-08-07T21:18:02.841Z,23.80
2022-08-07T21:22:14.764Z,23.76
2022-08-07T21:27:01.746Z,23.65
2022-08-07T21:31:15.892Z,23.55
2022-08-07T21:36:05.102Z,23.43
2022-08-07T21:40:12.382Z,23.48
2022-08-07T21:44:28.385Z,23.45
2022-08-07T21:48:57.503Z,23.41
2022-08-07T21:53:11.880Z,23.27
2022-08-07T21:57:52.435Z,23.39
2022-08-07T22:02:24.115Z,23.35
2022-08-07T22:06:33.691Z,23.23
2022-08-07T22:10:38.530Z,23.11
2022-08-07T22:15:01.922Z,23.05
2022-08-07T22:19:30.380Z,23.05
2022-08-07T22:23:43.702Z,22.76
2022-08-07T22:28:29.704Z,22.60
2022-08-07T22:32:53.728Z,22.50
2022-08-07T22:37:05.030Z,22.38
2022-08-07T22:41:20.011Z,22.37
2022-08-07T22:46:21.812Z,22.45
2022-08-07T22:50:29.193Z,22.38
2022-08-07T22:54:54.681Z,22.46
2022-08-07T22:59:32.678Z,22.37
2022-08-07T23:04:09.669Z,22.33
2022-08-07T23:08:55.723Z,22.23
2022-08-07T23:13:21.686Z,22.04
2022-08-07T23:17:50.777Z,21.95
2022-08-07T23:22:00.712Z,21.94
2022-08-07T23:26:14.972Z,21.87
2022-08-07T23:30:37.670Z,21.86
2022-08-07T23:35:02.482Z,21.95
2022-08-07T23:39:36.354Z,21.98
2022-08-07T23:44:00.769Z,21.97
2022-08-07T23:48:20.545Z,21.93
2022-08-07T23:52:58.741Z,21.83
2022-08-07T23:57:19.863Z,21.82
